Ensenada, Puerto Rico
Current Conditions -  °F | °C
As of 2:50 AM on Monday 24 Nov 2014 (Local Time) from TJBQ Reporting Station
Scattered Clouds Scattered Clouds  
Wind Chill: 75°   Ceiling: Unl
Heat Index: 75°   Visibility: 10mi
Dew Point: 70°   Wind: 7mph
Humidity: 83%   Direction: 110°ESE
Pressure: 30"   Gusts: NA
Location:  17.97°N, 66.94°W
Report Text: TJBQ 240650Z 11006KT 10SM SCT028 SCT034 SCT047 24/21 A3000 RMK RWY 08 ATIS Y
Loading
Personal Weather Stations






























Interactive Weather Map New forecast layout! Learn more

10-Day Weather Forecast

Advertisements
Track Severe Weather on mobile